Home > Products > Valid Products > MTR

000
SAUS41 KLWX 260659 COR
MTRDMH
METAR KDMH 260654Z AUTO 14/08 A2967 RMK AO1 SLP045 T01440078





000
SAUS41 KLWX 260656
MTRNAK
METAR KNAK 260654Z AUTO 27003KT 10SM FEW060 14/07 A2966 RMK AO2
SLP046 T01390072





000
SAUS41 KLWX 260559 COR
MTRDMH
METAR KDMH 260554Z AUTO 16/07 A2965 RMK AO1 SLP040 T01560072 10178
20156 56019





000
SAUS41 KLWX 260559 COR
MTRDMH
METAR KDMH 260554Z AUTO 16/07 A2965 RMK AO1 SLP040 T01560072 10178
20156 56019





000
SAUS41 KLWX 260556
MTRNAK
METAR KNAK 260554Z AUTO 24005KT 10SM CLR 13/07 A2966 RMK AO2 SLP045
T01330067 10172 20133 56018





000
SAUS41 KLWX 260556
MTRNAK
METAR KNAK 260554Z AUTO 24005KT 10SM CLR 13/07 A2966 RMK AO2 SLP045
T01330067 10172 20133 56018





000
SAUS41 KLWX 260459 COR
MTRDMH
METAR KDMH 260454Z AUTO 16/07 A2966 RMK AO1 SLP043 T01560067
402170100





000
SAUS41 KLWX 260459 COR
MTRDMH
METAR KDMH 260454Z AUTO 16/07 A2966 RMK AO1 SLP043 T01560067
402170100





000
SAUS41 KLWX 260455
MTRNAK
METAR KNAK 260454Z AUTO 24004KT 10SM CLR 13/07 A2967 RMK AO2 SLP050
T01330067 402170078





000
SAUS41 KLWX 260455
MTRNAK
METAR KNAK 260454Z AUTO 24004KT 10SM CLR 13/07 A2967 RMK AO2 SLP050
T01330067 402170078





000
SAUS41 KLWX 260359 COR
MTRDMH
METAR KDMH 260354Z AUTO 16/06 A2968 RMK AO1 SLP050 T01560061





000
SAUS41 KLWX 260359 COR
MTRDMH
METAR KDMH 260354Z AUTO 16/06 A2968 RMK AO1 SLP050 T01560061





000
SAUS41 KLWX 260355
MTRNAK
METAR KNAK 260354Z AUTO 00000KT 10SM CLR 14/06 A2969 RMK AO2 SLP056
T01390056





000
SAUS41 KLWX 260355
MTRNAK
METAR KNAK 260354Z AUTO 00000KT 10SM CLR 14/06 A2969 RMK AO2 SLP056
T01390056





000
SAUS41 KLWX 260259 COR
MTRDMH
METAR KDMH 260254Z AUTO 17/06 A2971 RMK AO1 SLP060 T01670056 58007





000
SAUS41 KLWX 260255
MTRNAK
METAR KNAK 260254Z AUTO 24005KT 10SM CLR 14/06 A2971 RMK AO2 SLP064
T01440056 56006





000
SAUS41 KLWX 260159 COR
MTRDMH
METAR KDMH 260154Z AUTO 17/05 A2972 RMK AO1 SLP063 T01670050





000
SAUS41 KLWX 260159 COR
MTRDMH
METAR KDMH 260154Z AUTO 17/05 A2972 RMK AO1 SLP063 T01670050





000
SAUS41 KLWX 260156
MTRNAK
METAR KNAK 260154Z AUTO VRB03KT 10SM CLR 15/05 A2972 RMK AO2 SLP065
T01500050





000
SAUS41 KLWX 260156
MTRNAK
METAR KNAK 260154Z AUTO VRB03KT 10SM CLR 15/05 A2972 RMK AO2 SLP065
T01500050





000
SAUS41 KLWX 260059 COR
MTRDMH
METAR KDMH 260054Z AUTO 17/05 A2972 RMK AO1 SLP063 T01670050





000
SAUS41 KLWX 260055
MTRNAK
METAR KNAK 260054Z AUTO 00000KT 10SM CLR 15/04 A2972 RMK AO2 SLP067
T01500044





000
SAUS41 KLWX 260000 COR
MTRDMH
METAR KDMH 252354Z AUTO 18/04 A2973 RMK AO1 SLP067 T01780044 10217
20178 55008





000
SAUS41 KLWX 252355
MTRNAK
METAR KNAK 252354Z AUTO 00000KT 10SM CLR 17/03 A2973 RMK AO2 SLP070
T01670033 10217 20167 55010





000
SAUS41 KLWX 252259 COR
MTRDMH
METAR KDMH 252254Z AUTO 19/06 A2972 RMK AO1 SLP064 T01940061





000
SAUS41 KLWX 252255
MTRNAK
METAR KNAK 252254Z AUTO 18004KT 10SM CLR 17/04 A2973 RMK AO2 SLP068
T01720039





000
SAUS41 KLWX 252159 COR
MTRDMH
METAR KDMH 252154Z AUTO 21/05 A2973 RMK AO1 SLP067 T02060050





000
SAUS41 KLWX 252155
MTRNAK
METAR KNAK 252154Z AUTO 18006KT 10SM CLR 19/04 A2974 RMK AO2 SLP071
T01940044





000
SAUS41 KLWX 252059 COR
MTRDMH
METAR KDMH 252054Z AUTO 21/06 A2975 RMK AO1 SLP075 T02110056 56031





000
SAUS41 KLWX 252055
MTRNAK
METAR KNAK 252054Z AUTO 23006KT 10SM BKN120 21/06 A2976 RMK AO2
SLP080 T02110061 56024





000
SAUS41 KLWX 251959 COR
MTRDMH
METAR KDMH 251954Z AUTO 21/06 A2978 RMK AO1 SLP084 T02110056





000
SAUS41 KLWX 251955
MTRNAK
METAR KNAK 251954Z AUTO 25008G14KT 210V280 10SM CLR 22/06 A2978 RMK
AO2 SLP086 T02170061





000
SAUS41 KLWX 251859 COR
MTRDMH
METAR KDMH 251854Z AUTO 21/05 A2980 RMK AO1 SLP089 T02110050





000
SAUS41 KLWX 251859 COR
MTRDMH
METAR KDMH 251854Z AUTO 21/05 A2980 RMK AO1 SLP089 T02110050





000
SAUS41 KLWX 251856
MTRNAK
METAR KNAK 251854Z AUTO 25008KT 210V280 10SM CLR 21/06 A2980 RMK AO2
SLP093 T02110056





000
SAUS41 KLWX 251856
MTRNAK
METAR KNAK 251854Z AUTO 25008KT 210V280 10SM CLR 21/06 A2980 RMK AO2
SLP093 T02110056





000
SAUS41 KLWX 251759 COR
MTRDMH
METAR KDMH 251754Z AUTO 21/05 A2984 RMK AO1 SLP106 T02060050 10206
20106 56036





000
SAUS41 KLWX 251759 COR
MTRDMH
METAR KDMH 251754Z AUTO 21/05 A2984 RMK AO1 SLP106 T02060050 10206
20106 56036





000
SAUS41 KLWX 251755
MTRNAK
METAR KNAK 251754Z AUTO 27008G15KT 10SM CLR 21/06 A2983 RMK AO2
SLP104 T02060056 10206 20083 57037





000
SAUS41 KLWX 251755
MTRNAK
METAR KNAK 251754Z AUTO 27008G15KT 10SM CLR 21/06 A2983 RMK AO2
SLP104 T02060056 10206 20083 57037





000
SAUS41 KLWX 251659 COR
MTRDMH
METAR KDMH 251654Z AUTO 20/06 A2987 RMK AO1 SLP115 T02000056





000
SAUS41 KLWX 251659 COR
MTRDMH
METAR KDMH 251654Z AUTO 20/06 A2987 RMK AO1 SLP115 T02000056





000
SAUS41 KLWX 251655
MTRNAK
METAR KNAK 251654Z AUTO VRB06KT 10SM CLR 19/05 A2987 RMK AO2 SLP117
T01940050





000
SAUS41 KLWX 251655
MTRNAK
METAR KNAK 251654Z AUTO VRB06KT 10SM CLR 19/05 A2987 RMK AO2 SLP117
T01940050





000
SAUS41 KLWX 251559 COR
MTRDMH
METAR KDMH 251554Z AUTO 19/05 A2992 RMK AO1 SLP131 T01890050





000
SAUS41 KLWX 251556
MTRNAK
METAR KNAK 251554Z AUTO 28005KT 10SM CLR 18/06 A2991 RMK AO2 SLP129
T01830056





000
SAUS41 KLWX 251459 COR
MTRDMH
METAR KDMH 251454Z AUTO 17/04 A2995 RMK AO1 SLP142 T01720044 50000





000
SAUS41 KLWX 251456
MTRNAK
METAR KNAK 251454Z AUTO 30007KT 270V330 10SM CLR 17/06 A2994 RMK AO2
SLP142 T01670056 58002





000
SAUS41 KLWX 251359 COR
MTRDMH
METAR KDMH 251354Z AUTO 16/06 A2997 RMK AO1 SLP149 T01560056





000
SAUS41 KLWX 251355
MTRNAK
METAR KNAK 251354Z AUTO 28005KT 10SM CLR 14/05 A2995 RMK AO2 SLP145
T01440050





000
SAUS41 KLWX 251259 COR
MTRDMH
METAR KDMH 251254Z AUTO 12/04 A2997 RMK AO1 SLP149 T01220044





000
SAUS41 KLWX 251255
MTRNAK
METAR KNAK 251254Z AUTO 27003KT 10SM CLR 11/05 A2995 RMK AO2 SLP144
T01110050





000
SAUS41 KLWX 251159 COR
MTRDMH
METAR KDMH 251154Z AUTO 11/03 A2995 RMK AO1 SLP141 T01060033 10133
20100 53006





000
SAUS41 KLWX 251159 COR
MTRDMH
METAR KDMH 251154Z AUTO 11/03 A2995 RMK AO1 SLP141 T01060033 10133
20100 53006





000
SAUS41 KLWX 251156
MTRNAK
METAR KNAK 251154Z AUTO 24003KT 10SM CLR 08/04 A2995 RMK AO2 SLP144
T00830039 10111 20078 53005





000
SAUS41 KLWX 251156
MTRNAK
METAR KNAK 251154Z AUTO 24003KT 10SM CLR 08/04 A2995 RMK AO2 SLP144
T00830039 10111 20078 53005





000
SAUS41 KLWX 251100 COR
MTRDMH
METAR KDMH 251054Z AUTO 11/03 A2994 RMK AO1 SLP140 T01060033





000
SAUS41 KLWX 251100 COR
MTRDMH
METAR KDMH 251054Z AUTO 11/03 A2994 RMK AO1 SLP140 T01060033





000
SAUS41 KLWX 251056
MTRNAK
METAR KNAK 251054Z AUTO 28003KT 10SM CLR 08/04 A2994 RMK AO2 SLP141
T00830039





000
SAUS41 KLWX 251056
MTRNAK
METAR KNAK 251054Z AUTO 28003KT 10SM CLR 08/04 A2994 RMK AO2 SLP141
T00830039





000
SAUS41 KLWX 250959 COR
MTRDMH
METAR KDMH 250954Z AUTO 11/03 A2994 RMK AO1 SLP137 T01060033





000
SAUS41 KLWX 250955
MTRNAK
METAR KNAK 250954Z AUTO 00000KT 10SM CLR 09/04 A2994 RMK AO2 SLP140
T00940039





000
SAUS41 KLWX 250859 COR
MTRDMH
METAR KDMH 250854Z AUTO 11/03 A2993 RMK AO1 SLP136 T01060033 58001





000
SAUS41 KLWX 250855
MTRNAK
METAR KNAK 250854Z AUTO 28003KT 10SM CLR 09/03 A2994 RMK AO2 SLP139
T00890033 58001





000
SAUS41 KLWX 250759 COR
MTRDMH
METAR KDMH 250754Z AUTO 12/04 A2993 RMK AO1 SLP136 T01170039





000
SAUS41 KLWX 250755
MTRNAK
METAR KNAK 250754Z AUTO 27005KT 10SM CLR 09/03 A2994 RMK AO2 SLP139
T00940033





000
SAUS41 KLWX 250659 COR
MTRDMH
METAR KDMH 250654Z AUTO 13/03 A2994 RMK AO1 SLP137 T01280033





000
SAUS41 KLWX 250655
MTRNAK
METAR KNAK 250654Z AUTO 28004KT 10SM CLR 11/03 A2994 RMK AO2 SLP140
T01060033





000
SAUS41 KLWX 250559 COR
MTRDMH
METAR KDMH 250554Z AUTO 13/03 A2994 RMK AO1 SLP137 T01330033 10172
20133 50005





000
SAUS41 KLWX 250555
MTRNAK
METAR KNAK 250554Z AUTO 28005KT 10SM CLR 11/03 A2994 RMK AO2 SLP140
T01110028 10156 20111 53003





000
SAUS41 KLWX 250459 COR
MTRDMH
METAR KDMH 250454Z AUTO 14/03 A2994 RMK AO1 SLP137 T01390028
402000133





000
SAUS41 KLWX 250455
MTRNAK
METAR KNAK 250454Z AUTO 29005KT 10SM CLR 12/03 A2993 RMK AO2 SLP138
T01220028 402000122





000
SAUS41 KLWX 250359 COR
MTRDMH
METAR KDMH 250354Z AUTO 14/03 A2993 RMK AO1 SLP136 T01440028





000
SAUS41 KLWX 250359 COR
MTRDMH
METAR KDMH 250354Z AUTO 14/03 A2993 RMK AO1 SLP136 T01440028





000
SAUS41 KLWX 250355
MTRNAK
METAR KNAK 250354Z AUTO 29005KT 10SM CLR 13/03 A2993 RMK AO2 SLP138
T01280028





000
SAUS41 KLWX 250355
MTRNAK
METAR KNAK 250354Z AUTO 29005KT 10SM CLR 13/03 A2993 RMK AO2 SLP138
T01280028





000
SAUS41 KLWX 250259 COR
MTRDMH
METAR KDMH 250254Z AUTO 15/02 A2992 RMK AO1 SLP132 T01500022 50007





000
SAUS41 KLWX 250255
MTRNAK
METAR KNAK 250254Z AUTO 30006KT 10SM CLR 14/03 A2993 RMK AO2 SLP136
T01440033 51006





000
SAUS41 KLWX 250159 COR
MTRDMH
METAR KDMH 250154Z AUTO 15/02 A2993 RMK AO1 SLP133 T01500022





000
SAUS41 KLWX 250155
MTRNAK
METAR KNAK 250154Z AUTO 31007KT 10SM CLR 15/02 A2992 RMK AO2 SLP135
T01500022





000
SAUS41 KLWX 250059 COR
MTRDMH
METAR KDMH 250054Z AUTO 16/02 A2991 RMK AO1 SLP129 T01560017





000
SAUS41 KLWX 250056
MTRNAK
METAR KNAK 250054Z AUTO 29005KT 10SM CLR 15/02 A2992 RMK AO2 SLP132
T01500017





000
SAUS41 KLWX 242359 COR
MTRDMH
METAR KDMH 242354Z AUTO 17/01 A2990 RMK AO1 SLP125 T01720011 10200
20172 51013





000
SAUS41 KLWX 242355
MTRNAK
METAR KNAK 242354Z AUTO 28005KT 10SM CLR 15/02 A2991 RMK AO2 SLP130
T01500022 10200 20144 53014





000
SAUS41 KLWX 242259 COR
MTRDMH
METAR KDMH 242254Z AUTO 18/01 A2990 RMK AO1 SLP123 T01780006





000
SAUS41 KLWX 242256
MTRNAK
METAR KNAK 242254Z AUTO 28005KT 10SM CLR 17/03 A2990 RMK AO2 SLP126
T01670028





000
SAUS41 KLWX 242159 COR
MTRDMH
METAR KDMH 242154Z AUTO 19/01 A2988 RMK AO1 SLP117 T01890011





000
SAUS41 KLWX 242155
MTRNAK
METAR KNAK 242154Z AUTO 28005KT 10SM CLR 18/04 A2988 RMK AO2 SLP120
T01780039





000
SAUS41 KLWX 242059 COR
MTRDMH
METAR KDMH 242054Z AUTO 19/01 A2986 RMK AO1 SLP111 T01940011 58013





000
SAUS41 KLWX 242055
MTRNAK
METAR KNAK 242054Z AUTO 29007KT 10SM CLR 19/02 A2987 RMK AO2 SLP116
T01890022 55005





000
SAUS41 KLWX 241959 COR
MTRDMH
METAR KDMH 241954Z AUTO 19/02 A2988 RMK AO1 SLP117 T01940022





000
SAUS41 KLWX 241955
MTRNAK
METAR KNAK 241954Z AUTO 29009KT 10SM CLR 19/04 A2987 RMK AO2 SLP115
T01940044





000
SAUS41 KLWX 241955
MTRNAK
METAR KNAK 241954Z AUTO 29009KT 10SM CLR 19/04 A2987 RMK AO2 SLP115
T01940044





000
SAUS41 KLWX 241859 COR
MTRDMH
METAR KDMH 241854Z AUTO 19/04 A2989 RMK AO1 SLP121 T01890039





000
SAUS41 KLWX 241855
MTRNAK
METAR KNAK 241854Z AUTO 31010G15KT 10SM CLR 19/06 A2987 RMK AO2
SLP117 T01890061





000
SAUS41 KLWX 241759 COR
MTRDMH
METAR KDMH 241754Z AUTO 19/04 A2990 RMK AO1 SLP124 T01890039 10189
20133 58017





000
SAUS41 KLWX 241755
MTRNAK
METAR KNAK 241754Z AUTO 32007KT 10SM CLR 18/06 A2989 RMK AO2 SLP122
T01830056 10183 20122 58018





000
SAUS41 KLWX 241659 COR
MTRDMH
METAR KDMH 241654Z AUTO 18/04 A2993 RMK AO1 SLP133 T01830044





000
SAUS41 KLWX 241655
MTRNAK
METAR KNAK 241654Z AUTO 32011KT 10SM CLR 18/07 A2990 RMK AO2 SLP127
T01780067





000
SAUS41 KLWX 241559 COR
MTRDMH
METAR KDMH 241554Z AUTO 18/04 A2995 RMK AO1 SLP140 T01780044





000
SAUS41 KLWX 241555
MTRNAK
METAR KNAK 241554Z AUTO 32014G20KT 10SM CLR 17/06 A2993 RMK AO2
SLP138 T01670061





000
SAUS41 KLWX 241500 COR
MTRDMH
METAR KDMH 241454Z AUTO 16/05 A2995 RMK AO1 SLP142 T01610050 50004





000
SAUS41 KLWX 241456
MTRNAK
METAR KNAK 241454Z AUTO 32011G19KT 10SM CLR 16/06 A2994 RMK AO2
SLP139 T01610061 50000





000
SAUS41 KLWX 241359 COR
MTRDMH
METAR KDMH 241354Z AUTO 16/05 A2996 RMK AO1 SLP145 T01560050





000
SAUS41 KLWX 241356
MTRNAK
METAR KNAK 241354Z AUTO 31012G18KT 10SM CLR 14/07 A2994 RMK AO2
SLP140 T01440067





000
SAUS41 KLWX 241259 COR
MTRDMH
METAR KDMH 241254Z AUTO 14/06 A2996 RMK AO1 SLP144 T01390056





000
SAUS41 KLWX 241255
MTRNAK
METAR KNAK 241254Z AUTO 28007KT 10SM CLR 13/06 A2995 RMK AO2 SLP144
T01330061





000
SAUS41 KLWX 241159 COR
MTRDMH
METAR KDMH 241154Z AUTO 13/06 A2994 RMK AO1 SLP137 T01330061 10150
20133 51017





000
SAUS41 KLWX 241155
MTRNAK
METAR KNAK 241154Z AUTO 29005KT 10SM CLR 12/07 A2994 RMK AO2 SLP139
T01220067 10144 20122 51016





000
SAUS41 KLWX 241059 COR
MTRDMH
METAR KDMH 241054Z AUTO 13/06 A2993 RMK AO1 SLP133 T01330061





000
SAUS41 KLWX 241055
MTRNAK
METAR KNAK 241054Z AUTO 28006KT 10SM CLR 12/06 A2992 RMK AO2 SLP134
T01220061





000
SAUS41 KLWX 241055
MTRNAK
METAR KNAK 241054Z AUTO 28006KT 10SM CLR 12/06 A2992 RMK AO2 SLP134
T01220061





000
SAUS41 KLWX 240959 COR
MTRDMH
METAR KDMH 240954Z AUTO 13/06 A2991 RMK AO1 SLP127 T01330056





000
SAUS41 KLWX 240959 COR
MTRDMH
METAR KDMH 240954Z AUTO 13/06 A2991 RMK AO1 SLP127 T01330056





000
SAUS41 KLWX 240955
MTRNAK
METAR KNAK 240954Z AUTO 29004KT 10SM CLR 13/06 A2991 RMK AO2 SLP131
T01280061





000
SAUS41 KLWX 240859 COR
MTRDMH
METAR KDMH 240854Z AUTO 13/05 A2989 RMK AO1 SLP120 T01330050 51008





000
SAUS41 KLWX 240855
MTRNAK
METAR KNAK 240854Z AUTO 30006KT 10SM CLR 13/06 A2989 RMK AO2 SLP123
T01280056 51006





000
SAUS41 KLWX 240759 COR
MTRDMH
METAR KDMH 240754Z AUTO 14/04 A2989 RMK AO1 SLP120 T01390044





000
SAUS41 KLWX 240755
MTRNAK
METAR KNAK 240754Z AUTO 29007KT 10SM FEW050 13/06 A2989 RMK AO2
SLP123 T01330056





000
SAUS41 KLWX 240659 COR
MTRDMH
METAR KDMH 240654Z AUTO 14/04 A2988 RMK AO1 SLP118 T01390039





000
SAUS41 KLWX 240656
MTRNAK
METAR KNAK 240654Z AUTO 30006KT 10SM CLR 14/05 A2988 RMK AO2 SLP121
T01390050





000
SAUS41 KLWX 240600 COR
MTRDMH
METAR KDMH 240554Z AUTO 15/04 A2986 RMK AO1 SLP112 T01500039 10178
20144 58008





000
SAUS41 KLWX 240556
MTRNAK
METAR KNAK 240554Z AUTO 28006KT 10SM CLR 14/06 A2987 RMK AO2 SLP116
T01440056 10167 20133 58006





000
SAUS41 KLWX 240459 COR
MTRDMH
METAR KDMH 240454Z AUTO 16/05 A2987 RMK AO1 SLP116 T01560050
401780122





000
SAUS41 KLWX 240459 COR
MTRDMH
METAR KDMH 240454Z AUTO 16/05 A2987 RMK AO1 SLP116 T01560050
401780122





000
SAUS41 KLWX 240455
MTRNAK
METAR KNAK 240454Z AUTO 29005KT 10SM FEW060 13/09 A2988 RMK AO2
SLP119 T01330089 401670122





000
SAUS41 KLWX 240455
MTRNAK
METAR KNAK 240454Z AUTO 29005KT 10SM FEW060 13/09 A2988 RMK AO2
SLP119 T01330089 401670122





000
SAUS41 KLWX 240359 COR
MTRDMH
METAR KDMH 240354Z AUTO 16/08 A2989 RMK AO1 SLP122 T01560078





000
SAUS41 KLWX 240359 COR
MTRDMH
METAR KDMH 240354Z AUTO 16/08 A2989 RMK AO1 SLP122 T01560078





000
SAUS41 KLWX 240355
MTRNAK
METAR KNAK 240354Z AUTO 00000KT 10SM OVC060 14/09 A2988 RMK AO2
SLP121 T01440094





000
SAUS41 KLWX 240355
MTRNAK
METAR KNAK 240354Z AUTO 00000KT 10SM OVC060 14/09 A2988 RMK AO2
SLP121 T01440094





000
SAUS41 KLWX 240259 COR
MTRDMH
METAR KDMH 240254Z AUTO 16/07 A2989 RMK AO1 SLP120 T01610072 51008





000
SAUS41 KLWX 240259 COR
MTRDMH
METAR KDMH 240254Z AUTO 16/07 A2989 RMK AO1 SLP120 T01610072 51008





000
SAUS41 KLWX 240255
MTRNAK
METAR KNAK 240254Z AUTO 00000KT 10SM OVC060 14/09 A2989 RMK AO2
SLP123 T01440094 51009





000
SAUS41 KLWX 240255
MTRNAK
METAR KNAK 240254Z AUTO 00000KT 10SM OVC060 14/09 A2989 RMK AO2
SLP123 T01440094 51009





000
SAUS41 KLWX 240159 COR
MTRDMH
METAR KDMH 240154Z AUTO 16/08 A2987 RMK AO1 SLP116 T01610078





000
SAUS41 KLWX 240159 COR
MTRDMH
METAR KDMH 240154Z AUTO 16/08 A2987 RMK AO1 SLP116 T01610078





000
SAUS41 KLWX 240155
MTRNAK
METAR KNAK 240154Z AUTO 36003KT 10SM OVC060 16/09 A2988 RMK AO2
SLP120 T01560094





000
SAUS41 KLWX 240155
MTRNAK
METAR KNAK 240154Z AUTO 36003KT 10SM OVC060 16/09 A2988 RMK AO2
SLP120 T01560094





000
SAUS41 KLWX 240059 COR
MTRDMH
METAR KDMH 240054Z AUTO 17/08 A2988 RMK AO1 SLP117 T01670078





000
SAUS41 KLWX 240055
MTRNAK
METAR KNAK 240054Z AUTO 00000KT 10SM OVC060 16/09 A2987 RMK AO2
SLP117 T01560094





000
SAUS41 KLWX 232359 COR
MTRDMH
METAR KDMH 232354Z AUTO 18/07 A2986 RMK AO1 SLP112 T01780072 10178
20167 51019





000
SAUS41 KLWX 232355
MTRNAK
METAR KNAK 232354Z AUTO 00000KT 10SM OVC055 16/08 A2986 RMK AO2
SLP114 T01610083 10167 20161 51018





000
SAUS41 KLWX 232259 COR
MTRDMH
METAR KDMH 232254Z AUTO 18/07 A2986 RMK AO1 SLP111 T01780067





000
SAUS41 KLWX 232255
MTRNAK
METAR KNAK 232254Z AUTO 33004KT 10SM OVC055 17/09 A2985 RMK AO2
SLP109 T01670089





000
SAUS41 KLWX 232159 COR
MTRDMH
METAR KDMH 232154Z AUTO 17/07 A2983 RMK AO1 SLP100 T01720067





000
SAUS41 KLWX 232155
MTRNAK
METAR KNAK 232154Z AUTO 31008KT 10SM OVC050 17/08 A2983 RMK AO2
SLP102 T01670078





000
SAUS41 KLWX 232059 COR
MTRDMH
METAR KDMH 232054Z AUTO 18/07 A2981 RMK AO1 SLP093 T01780067 58009





000
SAUS41 KLWX 232055
MTRNAK
METAR KNAK 232054Z AUTO 30009KT 10SM BKN049 OVC060 17/08 A2981 RMK
AO2 SLP096 T01670078 58004





000
SAUS41 KLWX 231959 COR
MTRDMH
METAR KDMH 231954Z AUTO 17/07 A2983 RMK AO1 SLP100 T01720067





000
SAUS41 KLWX 231955
MTRNAK
METAR KNAK 231954Z AUTO 32012G18KT 10SM OVC046 17/08 A2982 RMK AO2
SLP099 T01670083





000
SAUS41 KLWX 231955
MTRNAK
METAR KNAK 231954Z AUTO 32012G18KT 10SM OVC046 17/08 A2982 RMK AO2
SLP099 T01670083





000
SAUS41 KLWX 231859 COR
MTRDMH
METAR KDMH 231854Z AUTO 17/07 A2982 RMK AO1 SLP099 T01670067





000
SAUS41 KLWX 231859 COR
MTRDMH
METAR KDMH 231854Z AUTO 17/07 A2982 RMK AO1 SLP099 T01670067





000
SAUS41 KLWX 231855
MTRNAK
METAR KNAK 231854Z AUTO 32014KT 10SM OVC046 16/08 A2982 RMK AO2
SLP099 T01610078





000
SAUS41 KLWX 231855
MTRNAK
METAR KNAK 231854Z AUTO 32014KT 10SM OVC046 16/08 A2982 RMK AO2
SLP099 T01610078





000
SAUS41 KLWX 231811 COR
MTRRSP
METAR KRSP 231754Z AUTO 10SM OVC024 12/06 RMK AO2 SLPNO T01170056
10117 20072 $





000
SAUS41 KLWX 231811 COR
MTRRSP
METAR KRSP 231754Z AUTO 10SM OVC024 12/06 RMK AO2 SLPNO T01170056
10117 20072 $





000
SAUS41 KLWX 231800 COR
MTRDMH
METAR KDMH 231754Z AUTO 17/07 A2983 RMK AO1 SLP102 T01670067 10167
20128 58010





000
SAUS41 KLWX 231800
MTRRYT
METAR KRYT 231753Z AUTO 34011G25KT 300V020 10SM BKN034 15/07 A2988
RMK AO2 SLP118 T01500067 10150 20100 58011 $





000
SAUS41 KLWX 231800
MTRRYT
METAR KRYT 231753Z AUTO 34011G25KT 300V020 10SM BKN034 15/07 A2988
RMK AO2 SLP118 T01500067 10150 20100 58011 $





000
SAUS41 KLWX 231800 COR
MTRDMH
METAR KDMH 231754Z AUTO 17/07 A2983 RMK AO1 SLP102 T01670067 10167
20128 58010





000
SAUS41 KLWX 231755
MTRNAK
METAR KNAK 231754Z AUTO 32015KT 10SM FEW048 OVC090 16/07 A2982 RMK
AO2 SLP100 T01610072 10167 20122 58013





000
SAUS41 KLWX 231755
MTRNAK
METAR KNAK 231754Z AUTO 32015KT 10SM FEW048 OVC090 16/07 A2982 RMK
AO2 SLP100 T01610072 10167 20122 58013





000
SAUS41 KLWX 231706
MTRRSP
METAR KRSP 231654Z AUTO 10SM BKN020 11/06 RMK AO2 SLPNO T01110056 $





000
SAUS41 KLWX 231706
MTRRSP
METAR KRSP 231654Z AUTO 10SM BKN020 11/06 RMK AO2 SLPNO T01110056 $





000
SAUS41 KLWX 231700
MTRRYT
METAR KRYT 231653Z AUTO 29007G21KT 250V350 10SM BKN032 14/06 A2989
RMK AO2 SLP121 T01390061 $





000
SAUS41 KLWX 231700
MTRRYT
METAR KRYT 231653Z AUTO 29007G21KT 250V350 10SM BKN032 14/06 A2989
RMK AO2 SLP121 T01390061 $





000
SAUS41 KLWX 231659 COR
MTRDMH
METAR KDMH 231654Z AUTO 17/07 A2986 RMK AO1 SLP110 T01670067





000
SAUS41 KLWX 231659 COR
MTRDMH
METAR KDMH 231654Z AUTO 17/07 A2986 RMK AO1 SLP110 T01670067





000
SAUS41 KLWX 231655
MTRNAK
METAR KNAK 231654Z AUTO 32012G21KT 10SM OVC044 16/08 A2984 RMK AO2
SLP105 T01610078





000
SAUS41 KLWX 231655
MTRNAK
METAR KNAK 231654Z AUTO 32012G21KT 10SM OVC044 16/08 A2984 RMK AO2
SLP105 T01610078





000
SAUS41 KLWX 231606
MTRRSP
METAR KRSP 231554Z AUTO 35014G31KT 10SM FEW022 12/05 RMK AO2 PK WND
34034/1525 SLPNO T01170050 $





000
SAUS41 KLWX 231600
MTRRYT
METAR KRYT 231553Z AUTO 30010G17KT 260V010 10SM OVC032 13/06 A2991
RMK AO2 SLP130 T01330061 $





000
SAUS41 KLWX 231600
MTRRYT
METAR KRYT 231553Z AUTO 30010G17KT 260V010 10SM OVC032 13/06 A2991
RMK AO2 SLP130 T01330061 $





000
SAUS41 KLWX 231559 COR
MTRDMH
METAR KDMH 231554Z AUTO 16/07 A2986 RMK AO1 SLP113 T01560067





000
SAUS41 KLWX 231559 COR
MTRDMH
METAR KDMH 231554Z AUTO 16/07 A2986 RMK AO1 SLP113 T01560067





000
SAUS41 KLWX 231555
MTRNAK
METAR KNAK 231554Z AUTO 33017G21KT 10SM BKN041 OVC080 15/08 A2985
RMK AO2 SLP109 T01500078





000
SAUS41 KLWX 231536
MTRRSP
SPECI KRSP 231524Z AUTO 35010G29KT 310V030 10SM SCT021 11/05 RMK AO2
PK WND 34029/1521 $





000
SAUS41 KLWX 231506
MTRRSP
METAR KRSP 231454Z AUTO 35014G36KT 320V030 10SM BKN021 11/05 RMK AO2
PK WND 36036/1446 SLPNO T01060050 $





000
SAUS41 KLWX 231500
MTRRYT
METAR KRYT 231453Z AUTO 33008G17KT 280V020 10SM BKN030 12/05 A2991
RMK AO2 SLP130 T01220050 53003 $





000
SAUS41 KLWX 231459 COR
MTRDMH
METAR KDMH 231454Z AUTO 14/06 A2986 RMK AO1 SLP113 T01440061 50004





000
SAUS41 KLWX 231459 COR
MTRDMH
METAR KDMH 231454Z AUTO 14/06 A2986 RMK AO1 SLP113 T01440061 50004





000
SAUS41 KLWX 231456
MTRNAK
METAR KNAK 231454Z AUTO 33020G24KT 10SM OVC039 14/07 A2986 RMK AO2
SLP113 T01440072 53003





000
SAUS41 KLWX 231421
MTRRSP
SPECI KRSP 231409Z AUTO 33016G28KT 300V050 10SM SCT019 09/04 RMK AO2
PK WND 33028/1408 $





000
SAUS41 KLWX 231406
MTRRSP
METAR KRSP 231354Z AUTO 34012G25KT 10SM BKN021 09/04 RMK AO2 PK WND
33026/1340 SLPNO T00940044 $





000
SAUS41 KLWX 231400
MTRRYT
METAR KRYT 231353Z AUTO VRB06G16KT 10SM BKN030 12/05 A2991 RMK AO2
SLP128 T01170050 $





000
SAUS41 KLWX 231359 COR
MTRDMH
METAR KDMH 231354Z AUTO 14/06 A2987 RMK AO1 SLP116 T01390061





000
SAUS41 KLWX 231356
MTRNAK
METAR KNAK 231354Z AUTO 31009KT 10SM BKN038 OVC055 13/07 A2986 RMK
AO2 SLP112 T01330067





000
SAUS41 KLWX 231330
MTRRYT
SPECI KRYT 231323Z AUTO VRB05KT 10SM OVC030 11/05 A2991 RMK AO2 $





000
SAUS41 KLWX 231316
MTRRYT
SPECI KRYT 231309Z AUTO VRB05KT 10SM BKN028 12/05 A2991 RMK AO2 $





000
SAUS41 KLWX 231306
MTRRSP
METAR KRSP 231254Z AUTO 33009G23KT 290V010 10SM BKN017 BKN023 08/04
RMK AO2 SLPNO T00780044 $





000
SAUS41 KLWX 231300
MTRRYT
METAR KRYT 231253Z AUTO VRB05KT 10SM FEW028 11/05 A2990 RMK AO2
SLP128 T01060050 $





000
SAUS41 KLWX 231259 COR
MTRDMH
METAR KDMH 231254Z AUTO 13/06 A2986 RMK AO1 SLP112 T01330061





000
SAUS41 KLWX 231255
MTRNAK
METAR KNAK 231254Z AUTO 30009KT 10SM BKN045 13/07 A2985 RMK AO2
SLP110 T01280067





000
SAUS41 KLWX 231206
MTRRSP
METAR KRSP 231154Z AUTO 34011G21KT 300V010 10SM BKN017 OVC025 07/04
RMK AO2 SLPNO 70010 T00720044 10072 20061 $





000
SAUS41 KLWX 231200
MTRRYT
METAR KRYT 231153Z AUTO 00000KT 10SM SCT027 BKN032 BKN039 10/05
A2990 RMK AO2 SLP128 70006 T01000050 10100 20089 52002 $





000
SAUS41 KLWX 231159 COR
MTRDMH
METAR KDMH 231154Z AUTO 13/06 A2985 RMK AO1 SLP109 70031 T01280056
10128 20122 50003





000
SAUS41 KLWX 231156
MTRNAK
METAR KNAK 231154Z AUTO 30009KT 10SM OVC047 12/07 A2985 RMK AO2
SLP110 70037 T01220067 10122 20122 51005





000
SAUS41 KLWX 231123
MTRRYT
SPECI KRYT 231116Z AUTO VRB05KT 10SM SCT026 10/05 A2989 RMK AO2 $





000
SAUS41 KLWX 231106
MTRRSP
METAR KRSP 231054Z AUTO 34010G26KT 10SM OVC015 07/04 RMK AO2 PK WND
34030/1027 SLPNO T00720044 $





000
SAUS41 KLWX 231100
MTRRYT
METAR KRYT 231053Z AUTO VRB06KT 10SM BKN026 OVC033 10/05 A2991 RMK
AO2 SLP128 T01000050 $





000
SAUS41 KLWX 231059 COR
MTRDMH
METAR KDMH 231054Z AUTO 13/06 A2986 RMK AO1 SLP110 T01280061





000
SAUS41 KLWX 231055
MTRNAK
METAR KNAK 231054Z AUTO 30011KT 10SM OVC040 12/07 A2985 RMK AO2
SLP109 T01220067





000
SAUS41 KLWX 231052
MTRRYT
SPECI KRYT 231045Z AUTO VRB06KT 10SM BKN026 OVC035 10/05 A2991 RMK
AO2 $





000
SAUS41 KLWX 231014
MTRRSP
SPECI KRSP 231001Z AUTO 34016G29KT 10SM OVC015 07/04 RMK AO2 PK WND
33029/1000 $





000
SAUS41 KLWX 231006
MTRRSP
METAR KRSP 230954Z AUTO 34013G28KT 10SM OVC013 07/04 RMK AO2 PK WND
33028/0945 SLPNO T00720044 $





000
SAUS41 KLWX 231000
MTRRYT
METAR KRYT 230953Z AUTO 33008KT 290V010 10SM SCT026 BKN034 OVC060
10/05 A2989 RMK AO2 SLP124 T01000050 $





000
SAUS41 KLWX 231000
MTRRYT
METAR KRYT 230953Z AUTO 33008KT 290V010 10SM SCT026 BKN034 OVC060
10/05 A2989 RMK AO2 SLP124 T01000050 $





000
SAUS41 KLWX 230959 COR
MTRDMH
METAR KDMH 230954Z AUTO 12/06 A2985 RMK AO1 SLP109 T01220061





000
SAUS41 KLWX 230959 COR
MTRDMH
METAR KDMH 230954Z AUTO 12/06 A2985 RMK AO1 SLP109 T01220061





000
SAUS41 KLWX 230955
MTRNAK
METAR KNAK 230954Z AUTO 30012KT 10SM BKN050 OVC055 12/07 A2984 RMK
AO2 SLP106 T01220067





000
SAUS41 KLWX 230955
MTRNAK
METAR KNAK 230954Z AUTO 30012KT 10SM BKN050 OVC055 12/07 A2984 RMK
AO2 SLP106 T01220067





000
SAUS41 KLWX 230906
MTRRSP
METAR KRSP 230854Z AUTO 33010G24KT 300V360 10SM OVC013 07/04 RMK AO2
PK WND 34031/0822 SLPNO T00720044 $





000
SAUS41 KLWX 230900
MTRRYT
METAR KRYT 230853Z AUTO VRB05KT 10SM OVC024 10/05 A2990 RMK AO2
SLP125 T01000050 55008 $





000
SAUS41 KLWX 230859 COR
MTRDMH
METAR KDMH 230854Z AUTO 12/06 A2984 RMK AO1 SLP105 T01220061 56009





000
SAUS41 KLWX 230855
MTRNAK
METAR KNAK 230854Z AUTO 31014G19KT 10SM OVC039 12/07 A2983 RMK AO2
SLP105 T01220067 55006





000
SAUS41 KLWX 230823
MTRRYT
SPECI KRYT 230816Z AUTO VRB05G18KT 10SM BKN026 OVC033 10/05 A2989
RMK AO2 $





000
SAUS41 KLWX 230806
MTRRSP
METAR KRSP 230754Z AUTO 34010G28KT 10SM OVC015 07/04 RMK AO2 PK WND
33031/0703 SLPNO T00670044 $





000
SAUS41 KLWX 230806
MTRRSP
METAR KRSP 230754Z AUTO 34010G28KT 10SM OVC015 07/04 RMK AO2 PK WND
33031/0703 SLPNO T00670044 $





000
SAUS41 KLWX 230800
MTRRYT
METAR KRYT 230753Z AUTO VRB05KT 10SM BKN024 OVC036 09/04 A2989 RMK
AO2 SLP123 T00940044 $





000
SAUS41 KLWX 230759 COR
MTRDMH
METAR KDMH 230754Z AUTO 12/06 A2985 RMK AO1 SLP106 T01220061





000
SAUS41 KLWX 230755
MTRNAK
METAR KNAK 230754Z AUTO 31013G20KT 10SM SCT047 OVC060 12/07 A2983
RMK AO2 SLP103 T01220067





    US Dept of Commerce
    National Oceanic and Atmospheric Administration
    National Weather Service
    1325 East West Highway
    Silver Spring, MD 20910
    Page Author: NWS Internet Services Team
Disclaimer
Information Quality
Credits
Glossary
Privacy Policy
Freedom of Information Act (FOIA)
About Us
Career Opportunities